sensor_id;sensor_type;location;lat;lon;timestamp;P1;durP1;ratioP1;P2;durP2;ratioP2
32082;SDS011;18597;48.328;7.932;2023-08-30T00:00:51;8.30;;;7.50;;
32082;SDS011;18597;48.328;7.932;2023-08-30T00:03:18;8.90;;;8.10;;
32082;SDS011;18597;48.328;7.932;2023-08-30T00:05:44;7.63;;;6.93;;
32082;SDS011;18597;48.328;7.932;2023-08-30T00:08:10;20.93;;;8.17;;
32082;SDS011;18597;48.328;7.932;2023-08-30T00:10:36;9.07;;;7.50;;
32082;SDS011;18597;48.328;7.932;2023-08-30T00:13:03;11.63;;;7.07;;
32082;SDS011;18597;48.328;7.932;2023-08-30T00:15:29;12.40;;;7.13;;
32082;SDS011;18597;48.328;7.932;2023-08-30T00:17:55;8.03;;;7.53;;
32082;SDS011;18597;48.328;7.932;2023-08-30T00:20:20;7.83;;;7.33;;
32082;SDS011;18597;48.328;7.932;2023-08-30T00:22:47;8.33;;;7.17;;
32082;SDS011;18597;48.328;7.932;2023-08-30T00:25:14;8.17;;;7.47;;
32082;SDS011;18597;48.328;7.932;2023-08-30T00:27:41;6.80;;;6.40;;
32082;SDS011;18597;48.328;7.932;2023-08-30T00:30:07;7.60;;;6.90;;
32082;SDS011;18597;48.328;7.932;2023-08-30T00:32:34;7.33;;;6.73;;
32082;SDS011;18597;48.328;7.932;2023-08-30T00:35:01;6.83;;;6.23;;
32082;SDS011;18597;48.328;7.932;2023-08-30T00:37:27;7.40;;;6.90;;
32082;SDS011;18597;48.328;7.932;2023-08-30T00:39:53;14.90;;;6.83;;
32082;SDS011;18597;48.328;7.932;2023-08-30T00:42:19;9.73;;;5.90;;
32082;SDS011;18597;48.328;7.932;2023-08-30T00:44:44;7.87;;;6.90;;
32082;SDS011;18597;48.328;7.932;2023-08-30T00:47:10;5.57;;;5.23;;
32082;SDS011;18597;48.328;7.932;2023-08-30T00:49:36;6.13;;;5.57;;
32082;SDS011;18597;48.328;7.932;2023-08-30T00:52:03;5.27;;;4.80;;
32082;SDS011;18597;48.328;7.932;2023-08-30T00:54:34;5.93;;;5.63;;
32082;SDS011;18597;48.328;7.932;2023-08-30T00:57:01;8.80;;;6.33;;
32082;SDS011;18597;48.328;7.932;2023-08-30T00:59:27;9.70;;;6.10;;
32082;SDS011;18597;48.328;7.932;2023-08-30T01:01:55;8.10;;;7.07;;
32082;SDS011;18597;48.328;7.932;2023-08-30T01:04:22;6.47;;;6.17;;
32082;SDS011;18597;48.328;7.932;2023-08-30T01:06:48;6.83;;;6.23;;
32082;SDS011;18597;48.328;7.932;2023-08-30T01:09:14;5.77;;;5.37;;
32082;SDS011;18597;48.328;7.932;2023-08-30T01:11:50;7.70;;;6.87;;
32082;SDS011;18597;48.328;7.932;2023-08-30T01:14:43;7.50;;;6.43;;
32082;SDS011;18597;48.328;7.932;2023-08-30T01:17:19;8.50;;;5.97;;
32082;SDS011;18597;48.328;7.932;2023-08-30T01:20:04;6.90;;;6.40;;
32082;SDS011;18597;48.328;7.932;2023-08-30T01:28:26;6.00;;;5.60;;
32082;SDS011;18597;48.328;7.932;2023-08-30T01:30:57;12.80;;;6.70;;
32082;SDS011;18597;48.328;7.932;2023-08-30T01:33:24;6.67;;;6.37;;
32082;SDS011;18597;48.328;7.932;2023-08-30T01:35:53;5.90;;;5.60;;
32082;SDS011;18597;48.328;7.932;2023-08-30T01:38:21;9.13;;;6.83;;
32082;SDS011;18597;48.328;7.932;2023-08-30T01:40:48;6.70;;;6.20;;
32082;SDS011;18597;48.328;7.932;2023-08-30T01:43:15;7.80;;;6.30;;
32082;SDS011;18597;48.328;7.932;2023-08-30T01:45:43;6.67;;;6.23;;
32082;SDS011;18597;48.328;7.932;2023-08-30T01:48:10;5.43;;;5.23;;
32082;SDS011;18597;48.328;7.932;2023-08-30T01:50:40;6.43;;;5.87;;
32082;SDS011;18597;48.328;7.932;2023-08-30T01:53:08;6.83;;;5.83;;
32082;SDS011;18597;48.328;7.932;2023-08-30T01:55:37;14.40;;;6.57;;
32082;SDS011;18597;48.328;7.932;2023-08-30T01:58:03;6.33;;;5.70;;
32082;SDS011;18597;48.328;7.932;2023-08-30T02:00:32;7.80;;;5.47;;
32082;SDS011;18597;48.328;7.932;2023-08-30T02:02:58;7.23;;;5.90;;
32082;SDS011;18597;48.328;7.932;2023-08-30T02:05:24;13.67;;;7.33;;
32082;SDS011;18597;48.328;7.932;2023-08-30T02:07:58;10.00;;;6.50;;
32082;SDS011;18597;48.328;7.932;2023-08-30T02:10:34;6.03;;;5.63;;
32082;SDS011;18597;48.328;7.932;2023-08-30T02:13:03;6.73;;;6.33;;
32082;SDS011;18597;48.328;7.932;2023-08-30T02:15:30;18.60;;;5.50;;
32082;SDS011;18597;48.328;7.932;2023-08-30T02:18:00;5.97;;;5.57;;
32082;SDS011;18597;48.328;7.932;2023-08-30T02:20:29;7.70;;;7.23;;
32082;SDS011;18597;48.328;7.932;2023-08-30T02:22:58;8.23;;;7.43;;
32082;SDS011;18597;48.328;7.932;2023-08-30T02:25:24;7.13;;;6.50;;
32082;SDS011;18597;48.328;7.932;2023-08-30T02:27:50;9.80;;;6.60;;
32082;SDS011;18597;48.328;7.932;2023-08-30T02:30:16;8.60;;;7.70;;
32082;SDS011;18597;48.328;7.932;2023-08-30T02:32:42;6.87;;;6.33;;
32082;SDS011;18597;48.328;7.932;2023-08-30T02:35:08;6.10;;;5.80;;
32082;SDS011;18597;48.328;7.932;2023-08-30T02:37:34;6.20;;;5.70;;
32082;SDS011;18597;48.328;7.932;2023-08-30T02:40:00;6.77;;;6.20;;
32082;SDS011;18597;48.328;7.932;2023-08-30T02:42:26;6.73;;;6.23;;
32082;SDS011;18597;48.328;7.932;2023-08-30T02:44:52;7.43;;;6.50;;
32082;SDS011;18597;48.328;7.932;2023-08-30T02:47:18;7.20;;;6.50;;
32082;SDS011;18597;48.328;7.932;2023-08-30T02:49:43;11.10;;;6.80;;
32082;SDS011;18597;48.328;7.932;2023-08-30T02:52:09;6.20;;;5.63;;
32082;SDS011;18597;48.328;7.932;2023-08-30T02:54:35;6.87;;;6.30;;
32082;SDS011;18597;48.328;7.932;2023-08-30T02:57:01;8.63;;;6.00;;
32082;SDS011;18597;48.328;7.932;2023-08-30T02:59:27;9.30;;;6.07;;
32082;SDS011;18597;48.328;7.932;2023-08-30T03:01:52;7.20;;;6.50;;
32082;SDS011;18597;48.328;7.932;2023-08-30T03:04:18;12.30;;;7.90;;
32082;SDS011;18597;48.328;7.932;2023-08-30T03:06:44;7.23;;;6.13;;
32082;SDS011;18597;48.328;7.932;2023-08-30T03:09:10;6.60;;;6.10;;
32082;SDS011;18597;48.328;7.932;2023-08-30T03:11:36;8.50;;;6.27;;
32082;SDS011;18597;48.328;7.932;2023-08-30T03:14:02;9.57;;;6.40;;
32082;SDS011;18597;48.328;7.932;2023-08-30T03:16:28;6.70;;;6.30;;
32082;SDS011;18597;48.328;7.932;2023-08-30T03:18:54;6.83;;;5.73;;
32082;SDS011;18597;48.328;7.932;2023-08-30T03:21:20;8.90;;;6.20;;
32082;SDS011;18597;48.328;7.932;2023-08-30T03:23:45;7.07;;;6.40;;
32082;SDS011;18597;48.328;7.932;2023-08-30T03:26:12;6.17;;;5.57;;
32082;SDS011;18597;48.328;7.932;2023-08-30T03:28:40;6.43;;;5.93;;
32082;SDS011;18597;48.328;7.932;2023-08-30T03:31:11;6.20;;;5.90;;
32082;SDS011;18597;48.328;7.932;2023-08-30T03:33:42;6.90;;;6.30;;
32082;SDS011;18597;48.328;7.932;2023-08-30T03:36:10;6.20;;;5.90;;
32082;SDS011;18597;48.328;7.932;2023-08-30T03:38:37;7.40;;;6.73;;
32082;SDS011;18597;48.328;7.932;2023-08-30T03:41:04;13.03;;;5.57;;
32082;SDS011;18597;48.328;7.932;2023-08-30T03:43:31;5.30;;;5.00;;
32082;SDS011;18597;48.328;7.932;2023-08-30T03:45:58;6.80;;;6.30;;
32082;SDS011;18597;48.328;7.932;2023-08-30T03:48:26;6.83;;;5.90;;
32082;SDS011;18597;48.328;7.932;2023-08-30T03:50:53;7.43;;;6.80;;
32082;SDS011;18597;48.328;7.932;2023-08-30T03:53:20;6.70;;;6.20;;
32082;SDS011;18597;48.328;7.932;2023-08-30T03:55:46;7.50;;;6.27;;
32082;SDS011;18597;48.328;7.932;2023-08-30T03:58:12;5.83;;;5.53;;
32082;SDS011;18597;48.328;7.932;2023-08-30T04:00:38;7.90;;;7.10;;
32082;SDS011;18597;48.328;7.932;2023-08-30T04:03:05;6.50;;;6.00;;
32082;SDS011;18597;48.328;7.932;2023-08-30T04:05:34;7.67;;;5.47;;
32082;SDS011;18597;48.328;7.932;2023-08-30T04:08:01;11.73;;;6.10;;
32082;SDS011;18597;48.328;7.932;2023-08-30T04:10:28;6.80;;;5.77;;
32082;SDS011;18597;48.328;7.932;2023-08-30T04:12:54;6.40;;;5.80;;
32082;SDS011;18597;48.328;7.932;2023-08-30T04:15:20;9.20;;;6.10;;
32082;SDS011;18597;48.328;7.932;2023-08-30T04:17:46;5.80;;;5.50;;
32082;SDS011;18597;48.328;7.932;2023-08-30T04:20:11;5.70;;;5.40;;
32082;SDS011;18597;48.328;7.932;2023-08-30T04:22:37;5.80;;;5.40;;
32082;SDS011;18597;48.328;7.932;2023-08-30T04:27:54;5.00;;;4.70;;
32082;SDS011;18597;48.328;7.932;2023-08-30T04:30:21;6.37;;;5.87;;
32082;SDS011;18597;48.328;7.932;2023-08-30T04:32:46;6.47;;;6.07;;
32082;SDS011;18597;48.328;7.932;2023-08-30T04:38:04;5.43;;;5.13;;
32082;SDS011;18597;48.328;7.932;2023-08-30T04:43:24;15.50;;;7.03;;
32082;SDS011;18597;48.328;7.932;2023-08-30T04:45:50;6.37;;;5.90;;
32082;SDS011;18597;48.328;7.932;2023-08-30T04:48:15;6.80;;;6.40;;
32082;SDS011;18597;48.328;7.932;2023-08-30T04:50:43;5.23;;;4.77;;
32082;SDS011;18597;48.328;7.932;2023-08-30T04:53:09;4.73;;;4.43;;
32082;SDS011;18597;48.328;7.932;2023-08-30T04:58:27;8.73;;;5.73;;
32082;SDS011;18597;48.328;7.932;2023-08-30T05:00:54;8.03;;;6.20;;
32082;SDS011;18597;48.328;7.932;2023-08-30T05:03:22;4.63;;;4.43;;
32082;SDS011;18597;48.328;7.932;2023-08-30T05:05:48;8.50;;;4.80;;
32082;SDS011;18597;48.328;7.932;2023-08-30T05:08:14;8.73;;;4.83;;
32082;SDS011;18597;48.328;7.932;2023-08-30T05:10:40;5.87;;;5.40;;
32082;SDS011;18597;48.328;7.932;2023-08-30T05:13:15;7.17;;;6.47;;
32082;SDS011;18597;48.328;7.932;2023-08-30T05:15:41;6.50;;;6.03;;
32082;SDS011;18597;48.328;7.932;2023-08-30T05:18:07;13.97;;;5.77;;
32082;SDS011;18597;48.328;7.932;2023-08-30T05:20:33;5.97;;;5.47;;
32082;SDS011;18597;48.328;7.932;2023-08-30T05:22:59;4.83;;;4.53;;
32082;SDS011;18597;48.328;7.932;2023-08-30T05:25:25;7.00;;;5.50;;
32082;SDS011;18597;48.328;7.932;2023-08-30T05:33:33;5.40;;;5.03;;
32082;SDS011;18597;48.328;7.932;2023-08-30T05:35:59;5.27;;;4.83;;
32082;SDS011;18597;48.328;7.932;2023-08-30T05:38:24;12.23;;;5.10;;
32082;SDS011;18597;48.328;7.932;2023-08-30T05:40:52;4.93;;;4.70;;
32082;SDS011;18597;48.328;7.932;2023-08-30T05:43:18;4.40;;;4.20;;
32082;SDS011;18597;48.328;7.932;2023-08-30T05:48:39;5.27;;;4.97;;
32082;SDS011;18597;48.328;7.932;2023-08-30T05:51:12;3.83;;;3.73;;
32082;SDS011;18597;48.328;7.932;2023-08-30T05:53:38;5.40;;;5.10;;
32082;SDS011;18597;48.328;7.932;2023-08-30T05:56:04;5.27;;;4.93;;
32082;SDS011;18597;48.328;7.932;2023-08-30T05:58:30;21.47;;;4.83;;
32082;SDS011;18597;48.328;7.932;2023-08-30T06:00:56;4.77;;;4.20;;
32082;SDS011;18597;48.328;7.932;2023-08-30T06:11:37;4.07;;;3.77;;
32082;SDS011;18597;48.328;7.932;2023-08-30T06:14:04;4.77;;;4.37;;
32082;SDS011;18597;48.328;7.932;2023-08-30T06:16:30;4.70;;;4.30;;
32082;SDS011;18597;48.328;7.932;2023-08-30T06:18:57;4.20;;;4.00;;
32082;SDS011;18597;48.328;7.932;2023-08-30T06:21:24;4.33;;;4.13;;
32082;SDS011;18597;48.328;7.932;2023-08-30T06:23:50;3.77;;;3.67;;
32082;SDS011;18597;48.328;7.932;2023-08-30T06:26:17;3.60;;;3.30;;
32082;SDS011;18597;48.328;7.932;2023-08-30T06:28:43;3.50;;;3.40;;
32082;SDS011;18597;48.328;7.932;2023-08-30T06:31:09;3.10;;;3.00;;
32082;SDS011;18597;48.328;7.932;2023-08-30T06:33:36;3.80;;;3.60;;
32082;SDS011;18597;48.328;7.932;2023-08-30T06:36:03;3.47;;;3.37;;
32082;SDS011;18597;48.328;7.932;2023-08-30T06:38:30;3.10;;;3.00;;
32082;SDS011;18597;48.328;7.932;2023-08-30T06:40:57;7.47;;;3.67;;
32082;SDS011;18597;48.328;7.932;2023-08-30T06:43:23;3.90;;;3.27;;
32082;SDS011;18597;48.328;7.932;2023-08-30T06:45:49;5.80;;;3.07;;
32082;SDS011;18597;48.328;7.932;2023-08-30T06:48:15;2.93;;;2.83;;
32082;SDS011;18597;48.328;7.932;2023-08-30T06:50:41;5.30;;;3.10;;
32082;SDS011;18597;48.328;7.932;2023-08-30T06:53:07;5.20;;;4.20;;
32082;SDS011;18597;48.328;7.932;2023-08-30T06:55:34;3.97;;;3.20;;
32082;SDS011;18597;48.328;7.932;2023-08-30T06:58:01;3.53;;;3.30;;
32082;SDS011;18597;48.328;7.932;2023-08-30T07:00:28;2.20;;;2.20;;
32082;SDS011;18597;48.328;7.932;2023-08-30T07:02:55;3.37;;;3.17;;
32082;SDS011;18597;48.328;7.932;2023-08-30T07:05:21;3.10;;;3.00;;
32082;SDS011;18597;48.328;7.932;2023-08-30T07:07:48;3.57;;;3.27;;
32082;SDS011;18597;48.328;7.932;2023-08-30T07:10:14;3.70;;;3.60;;
32082;SDS011;18597;48.328;7.932;2023-08-30T07:12:40;3.30;;;3.17;;
32082;SDS011;18597;48.328;7.932;2023-08-30T07:15:06;3.47;;;3.37;;
32082;SDS011;18597;48.328;7.932;2023-08-30T07:17:32;2.70;;;2.67;;
32082;SDS011;18597;48.328;7.932;2023-08-30T07:19:58;3.00;;;2.83;;
32082;SDS011;18597;48.328;7.932;2023-08-30T07:22:24;3.33;;;3.20;;
32082;SDS011;18597;48.328;7.932;2023-08-30T07:24:50;2.60;;;2.60;;
32082;SDS011;18597;48.328;7.932;2023-08-30T07:27:16;3.47;;;3.20;;
32082;SDS011;18597;48.328;7.932;2023-08-30T07:29:41;2.30;;;2.30;;
32082;SDS011;18597;48.328;7.932;2023-08-30T07:32:08;3.27;;;3.17;;
32082;SDS011;18597;48.328;7.932;2023-08-30T07:34:35;3.07;;;2.93;;
32082;SDS011;18597;48.328;7.932;2023-08-30T07:37:00;2.60;;;2.57;;
32082;SDS011;18597;48.328;7.932;2023-08-30T07:39:27;2.40;;;2.40;;
32082;SDS011;18597;48.328;7.932;2023-08-30T07:41:53;3.37;;;2.70;;
32082;SDS011;18597;48.328;7.932;2023-08-30T07:44:18;2.53;;;2.53;;
32082;SDS011;18597;48.328;7.932;2023-08-30T07:46:45;3.10;;;2.77;;
32082;SDS011;18597;48.328;7.932;2023-08-30T07:49:11;3.00;;;2.90;;
32082;SDS011;18597;48.328;7.932;2023-08-30T07:51:37;3.60;;;3.40;;
32082;SDS011;18597;48.328;7.932;2023-08-30T07:54:03;2.80;;;2.80;;
32082;SDS011;18597;48.328;7.932;2023-08-30T07:56:29;3.70;;;2.27;;
32082;SDS011;18597;48.328;7.932;2023-08-30T07:58:56;2.30;;;2.30;;
32082;SDS011;18597;48.328;7.932;2023-08-30T08:01:23;3.30;;;2.47;;
32082;SDS011;18597;48.328;7.932;2023-08-30T08:03:49;2.70;;;2.50;;
32082;SDS011;18597;48.328;7.932;2023-08-30T08:06:14;2.60;;;2.50;;
32082;SDS011;18597;48.328;7.932;2023-08-30T08:08:40;3.17;;;2.30;;
32082;SDS011;18597;48.328;7.932;2023-08-30T08:11:22;2.13;;;2.13;;
32082;SDS011;18597;48.328;7.932;2023-08-30T08:13:47;5.77;;;2.20;;
32082;SDS011;18597;48.328;7.932;2023-08-30T08:16:13;1.70;;;1.70;;
32082;SDS011;18597;48.328;7.932;2023-08-30T08:18:39;2.07;;;1.93;;
32082;SDS011;18597;48.328;7.932;2023-08-30T08:21:05;2.73;;;2.30;;
32082;SDS011;18597;48.328;7.932;2023-08-30T08:23:30;2.80;;;2.13;;
32082;SDS011;18597;48.328;7.932;2023-08-30T08:25:57;2.10;;;2.00;;
32082;SDS011;18597;48.328;7.932;2023-08-30T08:28:27;2.43;;;2.33;;
32082;SDS011;18597;48.328;7.932;2023-08-30T08:30:53;2.13;;;2.07;;
32082;SDS011;18597;48.328;7.932;2023-08-30T08:33:20;2.43;;;2.37;;
32082;SDS011;18597;48.328;7.932;2023-08-30T08:35:48;2.00;;;1.90;;
32082;SDS011;18597;48.328;7.932;2023-08-30T08:38:14;1.93;;;1.93;;
32082;SDS011;18597;48.328;7.932;2023-08-30T08:40:40;2.30;;;1.43;;
32082;SDS011;18597;48.328;7.932;2023-08-30T08:43:06;7.00;;;1.57;;
32082;SDS011;18597;48.328;7.932;2023-08-30T08:45:35;1.50;;;1.50;;
32082;SDS011;18597;48.328;7.932;2023-08-30T08:48:03;2.20;;;2.20;;
32082;SDS011;18597;48.328;7.932;2023-08-30T08:50:30;2.67;;;1.90;;
32082;SDS011;18597;48.328;7.932;2023-08-30T08:52:58;2.00;;;2.00;;
32082;SDS011;18597;48.328;7.932;2023-08-30T08:55:26;2.23;;;2.03;;
32082;SDS011;18597;48.328;7.932;2023-08-30T08:57:55;2.60;;;2.40;;
32082;SDS011;18597;48.328;7.932;2023-08-30T09:00:24;2.63;;;2.43;;
32082;SDS011;18597;48.328;7.932;2023-08-30T09:02:50;2.30;;;2.20;;
32082;SDS011;18597;48.328;7.932;2023-08-30T09:05:18;2.00;;;2.00;;
32082;SDS011;18597;48.328;7.932;2023-08-30T09:07:45;2.50;;;2.40;;
32082;SDS011;18597;48.328;7.932;2023-08-30T09:10:11;3.27;;;2.33;;
32082;SDS011;18597;48.328;7.932;2023-08-30T09:12:37;1.67;;;1.67;;
32082;SDS011;18597;48.328;7.932;2023-08-30T09:15:03;1.97;;;1.87;;
32082;SDS011;18597;48.328;7.932;2023-08-30T09:17:37;2.77;;;2.17;;
32082;SDS011;18597;48.328;7.932;2023-08-30T09:20:06;2.50;;;2.30;;
32082;SDS011;18597;48.328;7.932;2023-08-30T09:22:37;5.43;;;2.00;;
32082;SDS011;18597;48.328;7.932;2023-08-30T09:25:08;2.00;;;2.00;;
32082;SDS011;18597;48.328;7.932;2023-08-30T09:27:47;1.87;;;1.77;;
32082;SDS011;18597;48.328;7.932;2023-08-30T09:30:12;2.30;;;2.20;;
32082;SDS011;18597;48.328;7.932;2023-08-30T09:32:40;1.60;;;1.60;;
32082;SDS011;18597;48.328;7.932;2023-08-30T09:35:08;2.20;;;2.20;;
32082;SDS011;18597;48.328;7.932;2023-08-30T09:37:34;1.93;;;1.93;;
32082;SDS011;18597;48.328;7.932;2023-08-30T09:40:00;2.13;;;2.07;;
32082;SDS011;18597;48.328;7.932;2023-08-30T09:42:26;1.70;;;1.70;;
32082;SDS011;18597;48.328;7.932;2023-08-30T09:44:52;1.70;;;1.70;;
32082;SDS011;18597;48.328;7.932;2023-08-30T09:47:19;2.50;;;1.93;;
32082;SDS011;18597;48.328;7.932;2023-08-30T09:49:45;5.43;;;2.13;;
32082;SDS011;18597;48.328;7.932;2023-08-30T09:52:13;3.80;;;2.50;;
32082;SDS011;18597;48.328;7.932;2023-08-30T09:54:41;3.13;;;1.97;;
32082;SDS011;18597;48.328;7.932;2023-08-30T09:57:09;1.67;;;1.67;;
32082;SDS011;18597;48.328;7.932;2023-08-30T09:59:36;1.87;;;1.87;;
32082;SDS011;18597;48.328;7.932;2023-08-30T10:02:04;1.53;;;1.53;;
32082;SDS011;18597;48.328;7.932;2023-08-30T10:04:32;1.70;;;1.60;;
32082;SDS011;18597;48.328;7.932;2023-08-30T10:07:03;1.70;;;1.70;;
32082;SDS011;18597;48.328;7.932;2023-08-30T10:09:30;1.67;;;1.67;;
32082;SDS011;18597;48.328;7.932;2023-08-30T10:11:57;1.70;;;1.60;;
32082;SDS011;18597;48.328;7.932;2023-08-30T10:14:23;2.00;;;1.90;;
32082;SDS011;18597;48.328;7.932;2023-08-30T10:16:49;1.33;;;1.33;;
32082;SDS011;18597;48.328;7.932;2023-08-30T10:19:23;1.50;;;1.50;;
32082;SDS011;18597;48.328;7.932;2023-08-30T10:22:06;2.27;;;2.17;;
32082;SDS011;18597;48.328;7.932;2023-08-30T10:24:36;5.03;;;1.90;;
32082;SDS011;18597;48.328;7.932;2023-08-30T10:27:24;1.60;;;1.53;;
32082;SDS011;18597;48.328;7.932;2023-08-30T10:29:52;1.50;;;1.50;;
32082;SDS011;18597;48.328;7.932;2023-08-30T10:35:11;2.00;;;1.90;;
32082;SDS011;18597;48.328;7.932;2023-08-30T10:37:39;1.80;;;1.70;;
32082;SDS011;18597;48.328;7.932;2023-08-30T10:40:05;3.07;;;1.53;;
32082;SDS011;18597;48.328;7.932;2023-08-30T10:42:32;2.40;;;2.30;;
32082;SDS011;18597;48.328;7.932;2023-08-30T10:45:00;2.77;;;2.00;;
32082;SDS011;18597;48.328;7.932;2023-08-30T10:47:32;2.10;;;2.00;;
32082;SDS011;18597;48.328;7.932;2023-08-30T10:50:04;1.50;;;1.50;;
32082;SDS011;18597;48.328;7.932;2023-08-30T10:52:33;1.20;;;1.20;;
32082;SDS011;18597;48.328;7.932;2023-08-30T10:55:08;2.40;;;1.70;;
32082;SDS011;18597;48.328;7.932;2023-08-30T10:57:42;2.87;;;1.60;;
32082;SDS011;18597;48.328;7.932;2023-08-30T11:00:12;1.60;;;1.60;;
32082;SDS011;18597;48.328;7.932;2023-08-30T11:02:48;1.80;;;1.70;;
32082;SDS011;18597;48.328;7.932;2023-08-30T11:05:16;1.70;;;1.60;;
32082;SDS011;18597;48.328;7.932;2023-08-30T11:07:44;2.07;;;1.83;;
32082;SDS011;18597;48.328;7.932;2023-08-30T11:10:10;1.90;;;1.90;;
32082;SDS011;18597;48.328;7.932;2023-08-30T11:12:36;1.93;;;1.93;;
32082;SDS011;18597;48.328;7.932;2023-08-30T11:15:04;1.57;;;1.57;;
32082;SDS011;18597;48.328;7.932;2023-08-30T11:17:34;1.60;;;1.60;;
32082;SDS011;18597;48.328;7.932;2023-08-30T11:20:07;3.50;;;2.37;;
32082;SDS011;18597;48.328;7.932;2023-08-30T11:22:36;3.63;;;2.03;;
32082;SDS011;18597;48.328;7.932;2023-08-30T11:25:07;2.00;;;1.90;;
32082;SDS011;18597;48.328;7.932;2023-08-30T11:27:34;4.37;;;1.93;;
32082;SDS011;18597;48.328;7.932;2023-08-30T11:30:01;2.23;;;2.13;;
32082;SDS011;18597;48.328;7.932;2023-08-30T11:32:34;3.30;;;1.73;;
32082;SDS011;18597;48.328;7.932;2023-08-30T11:35:02;2.00;;;1.90;;
32082;SDS011;18597;48.328;7.932;2023-08-30T11:37:29;1.97;;;1.80;;
32082;SDS011;18597;48.328;7.932;2023-08-30T11:39:56;2.03;;;2.03;;
32082;SDS011;18597;48.328;7.932;2023-08-30T11:42:22;2.27;;;2.17;;
32082;SDS011;18597;48.328;7.932;2023-08-30T11:44:50;1.90;;;1.73;;
32082;SDS011;18597;48.328;7.932;2023-08-30T11:47:18;2.10;;;2.10;;
32082;SDS011;18597;48.328;7.932;2023-08-30T11:49:46;2.50;;;1.90;;
32082;SDS011;18597;48.328;7.932;2023-08-30T11:52:15;2.13;;;2.00;;
32082;SDS011;18597;48.328;7.932;2023-08-30T11:54:42;2.30;;;1.47;;
32082;SDS011;18597;48.328;7.932;2023-08-30T11:57:09;2.37;;;2.27;;
32082;SDS011;18597;48.328;7.932;2023-08-30T11:59:35;1.80;;;1.80;;
32082;SDS011;18597;48.328;7.932;2023-08-30T12:02:02;2.00;;;1.90;;
32082;SDS011;18597;48.328;7.932;2023-08-30T12:04:28;1.97;;;1.97;;
32082;SDS011;18597;48.328;7.932;2023-08-30T12:06:55;2.03;;;2.00;;
32082;SDS011;18597;48.328;7.932;2023-08-30T12:09:22;3.00;;;2.80;;
32082;SDS011;18597;48.328;7.932;2023-08-30T12:11:48;5.37;;;2.47;;
32082;SDS011;18597;48.328;7.932;2023-08-30T12:14:14;2.27;;;2.17;;
32082;SDS011;18597;48.328;7.932;2023-08-30T12:16:40;2.00;;;1.90;;
32082;SDS011;18597;48.328;7.932;2023-08-30T12:19:07;4.83;;;1.50;;
32082;SDS011;18597;48.328;7.932;2023-08-30T12:21:42;1.67;;;1.67;;
32082;SDS011;18597;48.328;7.932;2023-08-30T12:24:08;2.40;;;2.30;;
32082;SDS011;18597;48.328;7.932;2023-08-30T12:26:35;5.33;;;2.70;;
32082;SDS011;18597;48.328;7.932;2023-08-30T12:29:03;1.90;;;1.80;;
32082;SDS011;18597;48.328;7.932;2023-08-30T12:31:32;2.37;;;2.37;;
32082;SDS011;18597;48.328;7.932;2023-08-30T12:33:58;2.47;;;2.27;;
32082;SDS011;18597;48.328;7.932;2023-08-30T12:36:24;1.80;;;1.80;;
32082;SDS011;18597;48.328;7.932;2023-08-30T12:38:50;3.20;;;2.30;;
32082;SDS011;18597;48.328;7.932;2023-08-30T12:41:16;2.63;;;2.53;;
32082;SDS011;18597;48.328;7.932;2023-08-30T12:43:42;2.80;;;2.23;;
32082;SDS011;18597;48.328;7.932;2023-08-30T12:46:07;5.17;;;2.73;;
32082;SDS011;18597;48.328;7.932;2023-08-30T12:48:33;2.63;;;2.23;;
32082;SDS011;18597;48.328;7.932;2023-08-30T12:50:59;1.67;;;1.67;;
32082;SDS011;18597;48.328;7.932;2023-08-30T12:53:25;2.17;;;2.10;;
32082;SDS011;18597;48.328;7.932;2023-08-30T12:55:51;1.27;;;1.27;;
32082;SDS011;18597;48.328;7.932;2023-08-30T12:58:16;1.23;;;1.23;;
32082;SDS011;18597;48.328;7.932;2023-08-30T13:00:42;2.00;;;1.90;;
32082;SDS011;18597;48.328;7.932;2023-08-30T13:03:08;1.50;;;1.50;;
32082;SDS011;18597;48.328;7.932;2023-08-30T13:05:34;2.07;;;1.93;;
32082;SDS011;18597;48.328;7.932;2023-08-30T13:08:01;2.63;;;2.27;;
32082;SDS011;18597;48.328;7.932;2023-08-30T13:10:27;2.30;;;1.97;;
32082;SDS011;18597;48.328;7.932;2023-08-30T13:12:53;2.40;;;1.80;;
32082;SDS011;18597;48.328;7.932;2023-08-30T13:15:19;2.10;;;2.00;;
32082;SDS011;18597;48.328;7.932;2023-08-30T13:17:45;2.30;;;1.73;;
32082;SDS011;18597;48.328;7.932;2023-08-30T13:20:10;2.63;;;1.80;;
32082;SDS011;18597;48.328;7.932;2023-08-30T13:22:36;3.80;;;2.30;;
32082;SDS011;18597;48.328;7.932;2023-08-30T13:25:02;1.47;;;1.43;;
32082;SDS011;18597;48.328;7.932;2023-08-30T13:27:29;2.20;;;2.20;;
32082;SDS011;18597;48.328;7.932;2023-08-30T13:29:55;2.60;;;2.50;;
32082;SDS011;18597;48.328;7.932;2023-08-30T13:32:21;2.23;;;2.20;;
32082;SDS011;18597;48.328;7.932;2023-08-30T13:34:46;2.10;;;2.00;;
32082;SDS011;18597;48.328;7.932;2023-08-30T13:37:13;1.93;;;1.53;;
32082;SDS011;18597;48.328;7.932;2023-08-30T13:39:39;5.17;;;2.33;;
32082;SDS011;18597;48.328;7.932;2023-08-30T13:42:05;2.67;;;2.50;;
32082;SDS011;18597;48.328;7.932;2023-08-30T13:44:31;3.73;;;2.43;;
32082;SDS011;18597;48.328;7.932;2023-08-30T13:46:57;2.20;;;2.10;;
32082;SDS011;18597;48.328;7.932;2023-08-30T13:49:23;2.20;;;2.10;;
32082;SDS011;18597;48.328;7.932;2023-08-30T13:51:49;3.00;;;2.10;;
32082;SDS011;18597;48.328;7.932;2023-08-30T13:54:14;2.53;;;1.40;;
32082;SDS011;18597;48.328;7.932;2023-08-30T13:56:40;5.63;;;2.63;;
32082;SDS011;18597;48.328;7.932;2023-08-30T13:59:06;2.03;;;1.93;;
32082;SDS011;18597;48.328;7.932;2023-08-30T14:01:32;2.10;;;2.10;;
32082;SDS011;18597;48.328;7.932;2023-08-30T14:04:01;1.90;;;1.80;;
32082;SDS011;18597;48.328;7.932;2023-08-30T14:06:29;1.97;;;1.87;;
32082;SDS011;18597;48.328;7.932;2023-08-30T14:08:57;1.97;;;1.90;;
32082;SDS011;18597;48.328;7.932;2023-08-30T14:11:23;1.70;;;1.70;;
32082;SDS011;18597;48.328;7.932;2023-08-30T14:13:49;2.07;;;1.97;;
32082;SDS011;18597;48.328;7.932;2023-08-30T14:16:15;2.67;;;2.30;;
32082;SDS011;18597;48.328;7.932;2023-08-30T14:18:41;1.77;;;1.67;;
32082;SDS011;18597;48.328;7.932;2023-08-30T14:21:08;1.90;;;1.80;;
32082;SDS011;18597;48.328;7.932;2023-08-30T14:23:34;2.10;;;2.00;;
32082;SDS011;18597;48.328;7.932;2023-08-30T14:26:02;2.90;;;2.60;;
32082;SDS011;18597;48.328;7.932;2023-08-30T14:28:39;1.93;;;1.83;;
32082;SDS011;18597;48.328;7.932;2023-08-30T14:31:06;3.53;;;1.90;;
32082;SDS011;18597;48.328;7.932;2023-08-30T14:33:34;2.40;;;2.30;;
32082;SDS011;18597;48.328;7.932;2023-08-30T14:36:00;1.97;;;1.87;;
32082;SDS011;18597;48.328;7.932;2023-08-30T14:38:27;1.90;;;1.80;;
32082;SDS011;18597;48.328;7.932;2023-08-30T14:40:54;2.30;;;2.30;;
32082;SDS011;18597;48.328;7.932;2023-08-30T14:43:22;2.47;;;2.37;;
32082;SDS011;18597;48.328;7.932;2023-08-30T14:45:48;1.70;;;1.70;;
32082;SDS011;18597;48.328;7.932;2023-08-30T14:48:13;4.90;;;2.13;;
32082;SDS011;18597;48.328;7.932;2023-08-30T14:50:39;1.90;;;1.80;;
32082;SDS011;18597;48.328;7.932;2023-08-30T14:53:05;2.60;;;1.80;;
32082;SDS011;18597;48.328;7.932;2023-08-30T14:55:31;2.47;;;2.37;;
32082;SDS011;18597;48.328;7.932;2023-08-30T14:57:57;3.83;;;1.93;;
32082;SDS011;18597;48.328;7.932;2023-08-30T15:00:23;1.90;;;1.80;;
32082;SDS011;18597;48.328;7.932;2023-08-30T15:02:50;2.43;;;2.03;;
32082;SDS011;18597;48.328;7.932;2023-08-30T15:05:15;1.50;;;1.47;;
32082;SDS011;18597;48.328;7.932;2023-08-30T15:07:42;8.90;;;2.10;;
32082;SDS011;18597;48.328;7.932;2023-08-30T15:10:08;1.50;;;1.50;;
32082;SDS011;18597;48.328;7.932;2023-08-30T15:12:35;1.50;;;1.50;;
32082;SDS011;18597;48.328;7.932;2023-08-30T15:15:02;1.60;;;1.50;;
32082;SDS011;18597;48.328;7.932;2023-08-30T15:17:28;2.20;;;2.13;;
32082;SDS011;18597;48.328;7.932;2023-08-30T15:19:54;2.70;;;2.10;;
32082;SDS011;18597;48.328;7.932;2023-08-30T15:22:20;2.13;;;2.13;;
32082;SDS011;18597;48.328;7.932;2023-08-30T15:24:45;1.67;;;1.67;;